sensor_id;sensor_type;location;lat;lon;timestamp;P1;durP1;ratioP1;P2;durP2;ratioP2
37931;SDS011;23758;42.640;23.302;2024-02-23T00:01:03;3.38;;;3.17;;
37931;SDS011;23758;42.640;23.302;2024-02-23T00:03:29;3.65;;;3.30;;
37931;SDS011;23758;42.640;23.302;2024-02-23T00:05:55;3.30;;;3.10;;
37931;SDS011;23758;42.640;23.302;2024-02-23T00:08:20;3.70;;;3.40;;
37931;SDS011;23758;42.640;23.302;2024-02-23T00:10:45;4.18;;;3.38;;
37931;SDS011;23758;42.640;23.302;2024-02-23T00:13:11;3.20;;;3.00;;
37931;SDS011;23758;42.640;23.302;2024-02-23T00:15:36;3.70;;;3.40;;
37931;SDS011;23758;42.640;23.302;2024-02-23T00:18:02;3.20;;;3.00;;
37931;SDS011;23758;42.640;23.302;2024-02-23T00:20:29;3.55;;;3.35;;
37931;SDS011;23758;42.640;23.302;2024-02-23T00:22:54;3.80;;;3.53;;
37931;SDS011;23758;42.640;23.302;2024-02-23T00:25:20;3.50;;;3.30;;
37931;SDS011;23758;42.640;23.302;2024-02-23T00:27:46;3.30;;;3.10;;
37931;SDS011;23758;42.640;23.302;2024-02-23T00:30:12;3.30;;;3.10;;
37931;SDS011;23758;42.640;23.302;2024-02-23T00:32:38;3.60;;;3.30;;
37931;SDS011;23758;42.640;23.302;2024-02-23T00:35:04;3.35;;;3.15;;
37931;SDS011;23758;42.640;23.302;2024-02-23T00:37:30;3.85;;;3.28;;
37931;SDS011;23758;42.640;23.302;2024-02-23T00:40:00;3.40;;;3.20;;
37931;SDS011;23758;42.640;23.302;2024-02-23T00:42:29;4.15;;;3.13;;
37931;SDS011;23758;42.640;23.302;2024-02-23T00:44:54;3.40;;;3.20;;
37931;SDS011;23758;42.640;23.302;2024-02-23T00:47:20;3.10;;;2.90;;
37931;SDS011;23758;42.640;23.302;2024-02-23T00:49:45;3.10;;;2.90;;
37931;SDS011;23758;42.640;23.302;2024-02-23T00:52:11;3.47;;;3.28;;
37931;SDS011;23758;42.640;23.302;2024-02-23T00:54:36;3.30;;;3.10;;
37931;SDS011;23758;42.640;23.302;2024-02-23T00:57:02;3.25;;;3.05;;
37931;SDS011;23758;42.640;23.302;2024-02-23T00:59:27;3.30;;;3.10;;
37931;SDS011;23758;42.640;23.302;2024-02-23T01:01:53;3.03;;;2.83;;
37931;SDS011;23758;42.640;23.302;2024-02-23T01:04:20;3.20;;;3.00;;
37931;SDS011;23758;42.640;23.302;2024-02-23T01:06:45;3.15;;;2.95;;
37931;SDS011;23758;42.640;23.302;2024-02-23T01:09:11;3.20;;;3.00;;
37931;SDS011;23758;42.640;23.302;2024-02-23T01:11:36;3.13;;;2.92;;
37931;SDS011;23758;42.640;23.302;2024-02-23T01:14:02;3.22;;;3.03;;
37931;SDS011;23758;42.640;23.302;2024-02-23T01:16:27;3.20;;;3.00;;
37931;SDS011;23758;42.640;23.302;2024-02-23T01:18:53;3.50;;;3.30;;
37931;SDS011;23758;42.640;23.302;2024-02-23T01:21:18;3.42;;;3.13;;
37931;SDS011;23758;42.640;23.302;2024-02-23T01:23:44;3.00;;;2.80;;
37931;SDS011;23758;42.640;23.302;2024-02-23T01:26:09;3.38;;;3.17;;
37931;SDS011;23758;42.640;23.302;2024-02-23T01:28:35;3.13;;;2.92;;
37931;SDS011;23758;42.640;23.302;2024-02-23T01:31:00;3.22;;;3.03;;
37931;SDS011;23758;42.640;23.302;2024-02-23T01:33:26;3.30;;;3.10;;
37931;SDS011;23758;42.640;23.302;2024-02-23T01:35:51;3.50;;;3.20;;
37931;SDS011;23758;42.640;23.302;2024-02-23T01:38:17;2.97;;;2.78;;
37931;SDS011;23758;42.640;23.302;2024-02-23T01:40:46;3.30;;;3.10;;
37931;SDS011;23758;42.640;23.302;2024-02-23T01:43:12;3.10;;;2.90;;
37931;SDS011;23758;42.640;23.302;2024-02-23T01:45:38;3.13;;;2.92;;
37931;SDS011;23758;42.640;23.302;2024-02-23T01:48:04;3.55;;;3.35;;
37931;SDS011;23758;42.640;23.302;2024-02-23T01:50:30;3.17;;;2.97;;
37931;SDS011;23758;42.640;23.302;2024-02-23T01:52:57;3.00;;;2.80;;
37931;SDS011;23758;42.640;23.302;2024-02-23T01:55:25;3.15;;;2.95;;
37931;SDS011;23758;42.640;23.302;2024-02-23T01:57:51;3.55;;;3.30;;
37931;SDS011;23758;42.640;23.302;2024-02-23T02:00:17;3.10;;;2.90;;
37931;SDS011;23758;42.640;23.302;2024-02-23T02:02:43;3.00;;;2.80;;
37931;SDS011;23758;42.640;23.302;2024-02-23T02:05:10;3.10;;;2.90;;
37931;SDS011;23758;42.640;23.302;2024-02-23T02:07:35;3.05;;;2.85;;
37931;SDS011;23758;42.640;23.302;2024-02-23T02:10:01;3.00;;;2.80;;
37931;SDS011;23758;42.640;23.302;2024-02-23T02:12:29;3.00;;;2.80;;
37931;SDS011;23758;42.640;23.302;2024-02-23T02:14:54;3.10;;;2.90;;
37931;SDS011;23758;42.640;23.302;2024-02-23T02:17:20;3.58;;;3.38;;
37931;SDS011;23758;42.640;23.302;2024-02-23T02:19:47;3.75;;;3.45;;
37931;SDS011;23758;42.640;23.302;2024-02-23T02:22:13;3.30;;;3.10;;
37931;SDS011;23758;42.640;23.302;2024-02-23T02:24:38;3.17;;;2.97;;
37931;SDS011;23758;42.640;23.302;2024-02-23T02:27:06;3.33;;;3.13;;
37931;SDS011;23758;42.640;23.302;2024-02-23T02:29:31;3.13;;;2.92;;
37931;SDS011;23758;42.640;23.302;2024-02-23T02:31:57;7.75;;;3.40;;
37931;SDS011;23758;42.640;23.302;2024-02-23T02:34:22;3.67;;;3.42;;
37931;SDS011;23758;42.640;23.302;2024-02-23T02:36:48;3.45;;;3.25;;
37931;SDS011;23758;42.640;23.302;2024-02-23T02:39:16;3.10;;;2.90;;
37931;SDS011;23758;42.640;23.302;2024-02-23T02:41:41;3.50;;;3.20;;
37931;SDS011;23758;42.640;23.302;2024-02-23T02:44:07;3.20;;;3.00;;
37931;SDS011;23758;42.640;23.302;2024-02-23T02:46:34;3.20;;;3.00;;
37931;SDS011;23758;42.640;23.302;2024-02-23T02:49:00;3.75;;;3.45;;
37931;SDS011;23758;42.640;23.302;2024-02-23T02:51:26;3.40;;;3.20;;
37931;SDS011;23758;42.640;23.302;2024-02-23T02:53:51;3.40;;;3.20;;
37931;SDS011;23758;42.640;23.302;2024-02-23T02:56:17;3.10;;;2.90;;
37931;SDS011;23758;42.640;23.302;2024-02-23T02:58:42;3.10;;;2.90;;
37931;SDS011;23758;42.640;23.302;2024-02-23T03:01:08;3.20;;;3.00;;
37931;SDS011;23758;42.640;23.302;2024-02-23T03:03:33;3.05;;;2.85;;
37931;SDS011;23758;42.640;23.302;2024-02-23T03:05:59;3.10;;;2.90;;
37931;SDS011;23758;42.640;23.302;2024-02-23T03:08:25;3.72;;;3.47;;
37931;SDS011;23758;42.640;23.302;2024-02-23T03:10:51;3.10;;;2.90;;
37931;SDS011;23758;42.640;23.302;2024-02-23T03:13:16;3.33;;;3.13;;
37931;SDS011;23758;42.640;23.302;2024-02-23T03:15:42;3.15;;;2.95;;
37931;SDS011;23758;42.640;23.302;2024-02-23T03:18:07;3.30;;;3.10;;
37931;SDS011;23758;42.640;23.302;2024-02-23T03:20:34;3.00;;;2.80;;
37931;SDS011;23758;42.640;23.302;2024-02-23T03:23:00;3.30;;;3.10;;
37931;SDS011;23758;42.640;23.302;2024-02-23T03:25:28;3.35;;;3.05;;
37931;SDS011;23758;42.640;23.302;2024-02-23T03:27:54;3.10;;;2.90;;
37931;SDS011;23758;42.640;23.302;2024-02-23T03:30:19;3.15;;;2.95;;
37931;SDS011;23758;42.640;23.302;2024-02-23T03:32:45;3.10;;;2.90;;
37931;SDS011;23758;42.640;23.302;2024-02-23T03:35:12;3.10;;;2.90;;
37931;SDS011;23758;42.640;23.302;2024-02-23T03:37:37;3.20;;;3.00;;
37931;SDS011;23758;42.640;23.302;2024-02-23T03:40:04;3.20;;;3.00;;
37931;SDS011;23758;42.640;23.302;2024-02-23T03:42:30;2.97;;;2.78;;
37931;SDS011;23758;42.640;23.302;2024-02-23T03:44:56;3.25;;;3.00;;
37931;SDS011;23758;42.640;23.302;2024-02-23T03:47:21;4.72;;;3.13;;
37931;SDS011;23758;42.640;23.302;2024-02-23T03:49:47;3.25;;;3.05;;
37931;SDS011;23758;42.640;23.302;2024-02-23T03:52:12;3.83;;;3.55;;
37931;SDS011;23758;42.640;23.302;2024-02-23T03:54:37;3.20;;;3.00;;
37931;SDS011;23758;42.640;23.302;2024-02-23T03:57:03;3.20;;;3.00;;
37931;SDS011;23758;42.640;23.302;2024-02-23T03:59:28;3.85;;;3.55;;
37931;SDS011;23758;42.640;23.302;2024-02-23T04:01:54;3.40;;;3.20;;
37931;SDS011;23758;42.640;23.302;2024-02-23T04:04:20;3.10;;;2.90;;
37931;SDS011;23758;42.640;23.302;2024-02-23T04:06:45;3.30;;;3.10;;
37931;SDS011;23758;42.640;23.302;2024-02-23T04:09:11;3.70;;;3.40;;
37931;SDS011;23758;42.640;23.302;2024-02-23T04:11:36;3.67;;;3.17;;
37931;SDS011;23758;42.640;23.302;2024-02-23T04:14:02;3.20;;;3.00;;
37931;SDS011;23758;42.640;23.302;2024-02-23T04:16:30;3.55;;;3.35;;
37931;SDS011;23758;42.640;23.302;2024-02-23T04:18:55;3.20;;;3.00;;
37931;SDS011;23758;42.640;23.302;2024-02-23T04:21:21;3.20;;;3.00;;
37931;SDS011;23758;42.640;23.302;2024-02-23T04:23:47;3.45;;;3.25;;
37931;SDS011;23758;42.640;23.302;2024-02-23T04:26:12;3.30;;;3.10;;
37931;SDS011;23758;42.640;23.302;2024-02-23T04:28:39;3.20;;;3.00;;
37931;SDS011;23758;42.640;23.302;2024-02-23T04:31:05;3.33;;;3.13;;
37931;SDS011;23758;42.640;23.302;2024-02-23T04:33:30;3.25;;;3.05;;
37931;SDS011;23758;42.640;23.302;2024-02-23T04:35:55;3.70;;;3.30;;
37931;SDS011;23758;42.640;23.302;2024-02-23T04:38:21;3.25;;;3.05;;
37931;SDS011;23758;42.640;23.302;2024-02-23T04:40:46;3.42;;;3.20;;
37931;SDS011;23758;42.640;23.302;2024-02-23T04:43:12;3.28;;;3.08;;
37931;SDS011;23758;42.640;23.302;2024-02-23T04:45:37;3.63;;;3.33;;
37931;SDS011;23758;42.640;23.302;2024-02-23T04:48:03;3.50;;;3.30;;
37931;SDS011;23758;42.640;23.302;2024-02-23T04:50:29;3.30;;;3.10;;
37931;SDS011;23758;42.640;23.302;2024-02-23T04:52:54;3.20;;;3.00;;
37931;SDS011;23758;42.640;23.302;2024-02-23T04:55:19;3.20;;;3.00;;
37931;SDS011;23758;42.640;23.302;2024-02-23T04:57:45;3.30;;;3.10;;
37931;SDS011;23758;42.640;23.302;2024-02-23T05:00:11;3.30;;;3.10;;
37931;SDS011;23758;42.640;23.302;2024-02-23T05:02:36;3.25;;;3.05;;
37931;SDS011;23758;42.640;23.302;2024-02-23T05:05:02;3.35;;;3.15;;
37931;SDS011;23758;42.640;23.302;2024-02-23T05:07:30;3.30;;;3.10;;
37931;SDS011;23758;42.640;23.302;2024-02-23T05:09:56;3.20;;;3.00;;
37931;SDS011;23758;42.640;23.302;2024-02-23T05:12:22;3.33;;;3.13;;
37931;SDS011;23758;42.640;23.302;2024-02-23T05:14:47;3.60;;;3.30;;
37931;SDS011;23758;42.640;23.302;2024-02-23T05:17:13;3.20;;;3.00;;
37931;SDS011;23758;42.640;23.302;2024-02-23T05:19:38;3.30;;;3.10;;
37931;SDS011;23758;42.640;23.302;2024-02-23T05:22:03;3.50;;;3.30;;
37931;SDS011;23758;42.640;23.302;2024-02-23T05:24:29;3.40;;;3.20;;
37931;SDS011;23758;42.640;23.302;2024-02-23T05:26:54;3.40;;;3.20;;
37931;SDS011;23758;42.640;23.302;2024-02-23T05:29:20;3.20;;;3.00;;
37931;SDS011;23758;42.640;23.302;2024-02-23T05:31:51;3.50;;;3.30;;
37931;SDS011;23758;42.640;23.302;2024-02-23T05:34:17;3.40;;;3.20;;
37931;SDS011;23758;42.640;23.302;2024-02-23T05:36:43;3.20;;;3.00;;
37931;SDS011;23758;42.640;23.302;2024-02-23T05:39:09;3.30;;;3.10;;
37931;SDS011;23758;42.640;23.302;2024-02-23T05:41:35;3.30;;;3.10;;
37931;SDS011;23758;42.640;23.302;2024-02-23T05:44:02;3.30;;;3.10;;
37931;SDS011;23758;42.640;23.302;2024-02-23T05:46:30;4.00;;;3.70;;
37931;SDS011;23758;42.640;23.302;2024-02-23T05:48:57;3.40;;;3.20;;
37931;SDS011;23758;42.640;23.302;2024-02-23T05:51:22;3.78;;;3.47;;
37931;SDS011;23758;42.640;23.302;2024-02-23T05:53:47;3.50;;;3.20;;
37931;SDS011;23758;42.640;23.302;2024-02-23T05:56:13;3.45;;;3.25;;
37931;SDS011;23758;42.640;23.302;2024-02-23T05:58:38;3.50;;;3.30;;
37931;SDS011;23758;42.640;23.302;2024-02-23T06:01:04;3.90;;;3.60;;
37931;SDS011;23758;42.640;23.302;2024-02-23T06:03:30;3.95;;;3.35;;
37931;SDS011;23758;42.640;23.302;2024-02-23T06:05:56;3.60;;;3.30;;
37931;SDS011;23758;42.640;23.302;2024-02-23T06:08:21;3.72;;;3.42;;
37931;SDS011;23758;42.640;23.302;2024-02-23T06:10:47;3.20;;;3.00;;
37931;SDS011;23758;42.640;23.302;2024-02-23T06:13:12;3.40;;;3.20;;
37931;SDS011;23758;42.640;23.302;2024-02-23T06:15:38;3.10;;;2.90;;
37931;SDS011;23758;42.640;23.302;2024-02-23T06:18:04;3.30;;;3.10;;
37931;SDS011;23758;42.640;23.302;2024-02-23T06:20:29;3.30;;;3.10;;
37931;SDS011;23758;42.640;23.302;2024-02-23T06:22:55;3.30;;;3.10;;
37931;SDS011;23758;42.640;23.302;2024-02-23T06:25:21;3.30;;;3.10;;
37931;SDS011;23758;42.640;23.302;2024-02-23T06:27:46;3.40;;;3.20;;
37931;SDS011;23758;42.640;23.302;2024-02-23T06:30:12;3.10;;;2.90;;
37931;SDS011;23758;42.640;23.302;2024-02-23T06:32:37;3.20;;;3.00;;
37931;SDS011;23758;42.640;23.302;2024-02-23T06:35:03;3.55;;;3.35;;
37931;SDS011;23758;42.640;23.302;2024-02-23T06:37:31;3.08;;;2.88;;
37931;SDS011;23758;42.640;23.302;2024-02-23T06:39:56;3.35;;;3.15;;
37931;SDS011;23758;42.640;23.302;2024-02-23T06:42:22;3.17;;;2.97;;
37931;SDS011;23758;42.640;23.302;2024-02-23T06:44:48;3.90;;;3.60;;
37931;SDS011;23758;42.640;23.302;2024-02-23T06:47:14;3.70;;;3.45;;
37931;SDS011;23758;42.640;23.302;2024-02-23T06:49:42;3.38;;;3.13;;
37931;SDS011;23758;42.640;23.302;2024-02-23T06:52:08;3.25;;;3.05;;
37931;SDS011;23758;42.640;23.302;2024-02-23T06:54:34;3.00;;;2.80;;
37931;SDS011;23758;42.640;23.302;2024-02-23T06:57:00;3.72;;;3.40;;
37931;SDS011;23758;42.640;23.302;2024-02-23T06:59:25;3.15;;;2.95;;
37931;SDS011;23758;42.640;23.302;2024-02-23T07:01:51;3.20;;;2.90;;
37931;SDS011;23758;42.640;23.302;2024-02-23T07:04:17;2.83;;;2.63;;
37931;SDS011;23758;42.640;23.302;2024-02-23T07:06:43;3.28;;;3.08;;
37931;SDS011;23758;42.640;23.302;2024-02-23T07:09:08;4.00;;;3.70;;
37931;SDS011;23758;42.640;23.302;2024-02-23T07:11:36;3.03;;;2.83;;
37931;SDS011;23758;42.640;23.302;2024-02-23T07:14:06;3.05;;;2.85;;
37931;SDS011;23758;42.640;23.302;2024-02-23T07:16:32;3.15;;;2.95;;
37931;SDS011;23758;42.640;23.302;2024-02-23T07:18:57;2.90;;;2.70;;
37931;SDS011;23758;42.640;23.302;2024-02-23T07:21:23;3.10;;;2.80;;
37931;SDS011;23758;42.640;23.302;2024-02-23T07:23:48;3.00;;;2.80;;
37931;SDS011;23758;42.640;23.302;2024-02-23T07:26:14;3.15;;;2.95;;
37931;SDS011;23758;42.640;23.302;2024-02-23T07:28:39;2.88;;;2.67;;
37931;SDS011;23758;42.640;23.302;2024-02-23T07:31:05;3.30;;;3.00;;
37931;SDS011;23758;42.640;23.302;2024-02-23T07:33:30;2.97;;;2.78;;
37931;SDS011;23758;42.640;23.302;2024-02-23T07:35:56;3.13;;;2.92;;
37931;SDS011;23758;42.640;23.302;2024-02-23T07:38:21;3.30;;;3.00;;
37931;SDS011;23758;42.640;23.302;2024-02-23T07:40:47;3.08;;;2.88;;
37931;SDS011;23758;42.640;23.302;2024-02-23T07:43:12;2.90;;;2.70;;
37931;SDS011;23758;42.640;23.302;2024-02-23T07:45:38;2.90;;;2.70;;
37931;SDS011;23758;42.640;23.302;2024-02-23T07:48:04;2.80;;;2.60;;
37931;SDS011;23758;42.640;23.302;2024-02-23T07:50:29;3.35;;;3.15;;
37931;SDS011;23758;42.640;23.302;2024-02-23T07:52:56;2.90;;;2.70;;
37931;SDS011;23758;42.640;23.302;2024-02-23T07:55:21;3.00;;;2.80;;
37931;SDS011;23758;42.640;23.302;2024-02-23T07:57:47;2.97;;;2.78;;
37931;SDS011;23758;42.640;23.302;2024-02-23T08:00:13;2.47;;;2.38;;
37931;SDS011;23758;42.640;23.302;2024-02-23T08:02:39;3.00;;;2.80;;
37931;SDS011;23758;42.640;23.302;2024-02-23T08:05:05;2.90;;;2.70;;
37931;SDS011;23758;42.640;23.302;2024-02-23T08:07:33;2.90;;;2.70;;
37931;SDS011;23758;42.640;23.302;2024-02-23T08:09:59;3.15;;;2.95;;
37931;SDS011;23758;42.640;23.302;2024-02-23T08:12:25;3.00;;;2.80;;
37931;SDS011;23758;42.640;23.302;2024-02-23T08:14:51;3.05;;;2.85;;
37931;SDS011;23758;42.640;23.302;2024-02-23T08:17:18;3.00;;;2.80;;
37931;SDS011;23758;42.640;23.302;2024-02-23T08:19:44;2.97;;;2.75;;
37931;SDS011;23758;42.640;23.302;2024-02-23T08:22:09;3.35;;;3.15;;
37931;SDS011;23758;42.640;23.302;2024-02-23T08:24:35;2.67;;;2.47;;
37931;SDS011;23758;42.640;23.302;2024-02-23T08:27:00;2.95;;;2.75;;
37931;SDS011;23758;42.640;23.302;2024-02-23T08:29:26;2.90;;;2.70;;
37931;SDS011;23758;42.640;23.302;2024-02-23T08:31:52;2.75;;;2.55;;
37931;SDS011;23758;42.640;23.302;2024-02-23T08:34:17;2.90;;;2.70;;
37931;SDS011;23758;42.640;23.302;2024-02-23T08:36:43;3.00;;;2.80;;
37931;SDS011;23758;42.640;23.302;2024-02-23T08:39:09;2.53;;;2.40;;
37931;SDS011;23758;42.640;23.302;2024-02-23T08:41:35;2.70;;;2.50;;
37931;SDS011;23758;42.640;23.302;2024-02-23T08:44:00;4.65;;;3.05;;
37931;SDS011;23758;42.640;23.302;2024-02-23T08:46:25;2.75;;;2.55;;
37931;SDS011;23758;42.640;23.302;2024-02-23T08:48:51;2.95;;;2.75;;
37931;SDS011;23758;42.640;23.302;2024-02-23T08:51:16;2.85;;;2.60;;
37931;SDS011;23758;42.640;23.302;2024-02-23T08:53:42;2.85;;;2.65;;
37931;SDS011;23758;42.640;23.302;2024-02-23T08:56:08;2.70;;;2.50;;
37931;SDS011;23758;42.640;23.302;2024-02-23T08:58:34;2.83;;;2.63;;
37931;SDS011;23758;42.640;23.302;2024-02-23T09:01:00;2.83;;;2.63;;
37931;SDS011;23758;42.640;23.302;2024-02-23T09:03:25;2.75;;;2.55;;
37931;SDS011;23758;42.640;23.302;2024-02-23T09:05:51;2.40;;;2.30;;
37931;SDS011;23758;42.640;23.302;2024-02-23T09:08:16;2.55;;;2.35;;
37931;SDS011;23758;42.640;23.302;2024-02-23T09:10:44;2.85;;;2.65;;
37931;SDS011;23758;42.640;23.302;2024-02-23T09:13:10;2.30;;;2.20;;
37931;SDS011;23758;42.640;23.302;2024-02-23T09:15:39;2.58;;;2.38;;
37931;SDS011;23758;42.640;23.302;2024-02-23T09:18:04;3.13;;;2.70;;
37931;SDS011;23758;42.640;23.302;2024-02-23T09:20:30;2.50;;;2.33;;
37931;SDS011;23758;42.640;23.302;2024-02-23T09:22:56;2.70;;;2.50;;
37931;SDS011;23758;42.640;23.302;2024-02-23T09:25:21;2.70;;;2.50;;
37931;SDS011;23758;42.640;23.302;2024-02-23T09:27:47;2.38;;;2.28;;
37931;SDS011;23758;42.640;23.302;2024-02-23T09:30:13;2.70;;;2.50;;
37931;SDS011;23758;42.640;23.302;2024-02-23T09:32:39;2.97;;;2.65;;
37931;SDS011;23758;42.640;23.302;2024-02-23T09:35:04;2.42;;;2.33;;
37931;SDS011;23758;42.640;23.302;2024-02-23T09:37:31;2.30;;;2.20;;
37931;SDS011;23758;42.640;23.302;2024-02-23T09:39:57;2.40;;;2.30;;
37931;SDS011;23758;42.640;23.302;2024-02-23T09:42:23;2.50;;;2.35;;
37931;SDS011;23758;42.640;23.302;2024-02-23T09:45:00;2.20;;;2.10;;
37931;SDS011;23758;42.640;23.302;2024-02-23T09:47:29;2.60;;;2.40;;
37931;SDS011;23758;42.640;23.302;2024-02-23T09:49:55;2.63;;;2.42;;
37931;SDS011;23758;42.640;23.302;2024-02-23T09:52:21;2.40;;;2.30;;
37931;SDS011;23758;42.640;23.302;2024-02-23T09:54:47;2.50;;;2.40;;
37931;SDS011;23758;42.640;23.302;2024-02-23T09:57:13;2.50;;;2.40;;
37931;SDS011;23758;42.640;23.302;2024-02-23T09:59:39;2.50;;;2.38;;
37931;SDS011;23758;42.640;23.302;2024-02-23T10:02:07;2.33;;;2.22;;
37931;SDS011;23758;42.640;23.302;2024-02-23T10:04:36;2.50;;;2.30;;
37931;SDS011;23758;42.640;23.302;2024-02-23T10:07:04;2.20;;;2.10;;
37931;SDS011;23758;42.640;23.302;2024-02-23T10:09:30;2.70;;;2.50;;
37931;SDS011;23758;42.640;23.302;2024-02-23T10:11:56;2.30;;;2.20;;
37931;SDS011;23758;42.640;23.302;2024-02-23T10:14:22;2.25;;;2.15;;
37931;SDS011;23758;42.640;23.302;2024-02-23T10:16:47;2.45;;;2.28;;
37931;SDS011;23758;42.640;23.302;2024-02-23T10:19:21;2.10;;;2.00;;
37931;SDS011;23758;42.640;23.302;2024-02-23T10:21:47;2.00;;;1.90;;
37931;SDS011;23758;42.640;23.302;2024-02-23T10:24:16;2.10;;;2.00;;
37931;SDS011;23758;42.640;23.302;2024-02-23T10:26:42;2.28;;;2.17;;
37931;SDS011;23758;42.640;23.302;2024-02-23T10:29:08;2.10;;;2.00;;
37931;SDS011;23758;42.640;23.302;2024-02-23T10:31:36;2.33;;;2.22;;
37931;SDS011;23758;42.640;23.302;2024-02-23T10:34:11;2.10;;;2.00;;
37931;SDS011;23758;42.640;23.302;2024-02-23T10:36:42;2.35;;;2.22;;
37931;SDS011;23758;42.640;23.302;2024-02-23T10:39:07;2.33;;;2.13;;
37931;SDS011;23758;42.640;23.302;2024-02-23T10:41:34;2.17;;;2.08;;
37931;SDS011;23758;42.640;23.302;2024-02-23T10:44:04;2.00;;;1.90;;
37931;SDS011;23758;42.640;23.302;2024-02-23T10:46:31;2.00;;;1.90;;
37931;SDS011;23758;42.640;23.302;2024-02-23T10:48:57;2.03;;;1.92;;
37931;SDS011;23758;42.640;23.302;2024-02-23T10:51:24;1.92;;;1.83;;
37931;SDS011;23758;42.640;23.302;2024-02-23T10:53:50;2.10;;;2.00;;
37931;SDS011;23758;42.640;23.302;2024-02-23T10:56:17;2.10;;;2.00;;
37931;SDS011;23758;42.640;23.302;2024-02-23T10:58:43;2.58;;;2.38;;
37931;SDS011;23758;42.640;23.302;2024-02-23T11:01:08;2.00;;;1.90;;
37931;SDS011;23758;42.640;23.302;2024-02-23T11:03:35;2.00;;;1.90;;
37931;SDS011;23758;42.640;23.302;2024-02-23T11:06:02;2.00;;;1.90;;
37931;SDS011;23758;42.640;23.302;2024-02-23T11:08:32;2.00;;;1.90;;
37931;SDS011;23758;42.640;23.302;2024-02-23T11:11:06;2.00;;;1.90;;
37931;SDS011;23758;42.640;23.302;2024-02-23T11:13:39;2.15;;;2.05;;
37931;SDS011;23758;42.640;23.302;2024-02-23T11:16:05;1.90;;;1.80;;
37931;SDS011;23758;42.640;23.302;2024-02-23T11:18:36;1.90;;;1.80;;
37931;SDS011;23758;42.640;23.302;2024-02-23T11:21:03;2.00;;;1.90;;
37931;SDS011;23758;42.640;23.302;2024-02-23T11:23:44;3.67;;;2.17;;
37931;SDS011;23758;42.640;23.302;2024-02-23T11:26:16;2.00;;;1.90;;
37931;SDS011;23758;42.640;23.302;2024-02-23T11:28:49;2.10;;;2.00;;
37931;SDS011;23758;42.640;23.302;2024-02-23T11:31:20;2.10;;;2.00;;
37931;SDS011;23758;42.640;23.302;2024-02-23T11:33:47;2.10;;;2.00;;
37931;SDS011;23758;42.640;23.302;2024-02-23T11:36:21;2.00;;;1.90;;
37931;SDS011;23758;42.640;23.302;2024-02-23T11:38:54;2.00;;;1.90;;
37931;SDS011;23758;42.640;23.302;2024-02-23T11:41:22;2.05;;;1.95;;
37931;SDS011;23758;42.640;23.302;2024-02-23T11:43:49;2.00;;;1.90;;
37931;SDS011;23758;42.640;23.302;2024-02-23T11:46:16;2.00;;;1.90;;
37931;SDS011;23758;42.640;23.302;2024-02-23T11:48:42;3.30;;;1.90;;
37931;SDS011;23758;42.640;23.302;2024-02-23T11:51:08;2.05;;;1.95;;
37931;SDS011;23758;42.640;23.302;2024-02-23T11:53:35;2.08;;;1.98;;
37931;SDS011;23758;42.640;23.302;2024-02-23T11:56:03;2.10;;;2.00;;
37931;SDS011;23758;42.640;23.302;2024-02-23T11:58:29;2.17;;;2.08;;
37931;SDS011;23758;42.640;23.302;2024-02-23T12:00:55;2.00;;;1.90;;
37931;SDS011;23758;42.640;23.302;2024-02-23T12:03:21;2.05;;;1.95;;
37931;SDS011;23758;42.640;23.302;2024-02-23T12:05:48;2.00;;;1.90;;
37931;SDS011;23758;42.640;23.302;2024-02-23T12:08:14;2.03;;;1.92;;
37931;SDS011;23758;42.640;23.302;2024-02-23T12:10:41;2.22;;;2.03;;
37931;SDS011;23758;42.640;23.302;2024-02-23T12:13:06;2.03;;;1.92;;
37931;SDS011;23758;42.640;23.302;2024-02-23T12:15:33;2.00;;;1.90;;
37931;SDS011;23758;42.640;23.302;2024-02-23T12:17:58;2.08;;;1.98;;
37931;SDS011;23758;42.640;23.302;2024-02-23T12:20:25;2.00;;;1.90;;
37931;SDS011;23758;42.640;23.302;2024-02-23T12:22:50;2.15;;;2.05;;
37931;SDS011;23758;42.640;23.302;2024-02-23T12:25:20;2.00;;;1.90;;
37931;SDS011;23758;42.640;23.302;2024-02-23T12:27:45;1.90;;;1.80;;
37931;SDS011;23758;42.640;23.302;2024-02-23T12:30:14;2.10;;;2.00;;
37931;SDS011;23758;42.640;23.302;2024-02-23T12:32:40;2.05;;;1.95;;
37931;SDS011;23758;42.640;23.302;2024-02-23T12:35:06;2.00;;;1.90;;
37931;SDS011;23758;42.640;23.302;2024-02-23T12:37:34;2.10;;;2.00;;
37931;SDS011;23758;42.640;23.302;2024-02-23T12:40:00;2.30;;;2.10;;
37931;SDS011;23758;42.640;23.302;2024-02-23T12:42:25;1.98;;;1.88;;
37931;SDS011;23758;42.640;23.302;2024-02-23T12:44:51;1.90;;;1.80;;
37931;SDS011;23758;42.640;23.302;2024-02-23T12:47:16;1.80;;;1.70;;
37931;SDS011;23758;42.640;23.302;2024-02-23T12:49:42;1.80;;;1.70;;
37931;SDS011;23758;42.640;23.302;2024-02-23T12:52:07;2.00;;;1.90;;
37931;SDS011;23758;42.640;23.302;2024-02-23T12:54:33;2.10;;;2.00;;
37931;SDS011;23758;42.640;23.302;2024-02-23T12:56:58;1.90;;;1.80;;
37931;SDS011;23758;42.640;23.302;2024-02-23T12:59:23;2.05;;;1.95;;
37931;SDS011;23758;42.640;23.302;2024-02-23T13:01:49;1.90;;;1.80;;
37931;SDS011;23758;42.640;23.302;2024-02-23T13:04:14;2.03;;;1.92;;
37931;SDS011;23758;42.640;23.302;2024-02-23T13:06:40;2.10;;;2.00;;
37931;SDS011;23758;42.640;23.302;2024-02-23T13:09:06;2.00;;;1.90;;
37931;SDS011;23758;42.640;23.302;2024-02-23T13:11:35;2.00;;;1.90;;
37931;SDS011;23758;42.640;23.302;2024-02-23T13:14:03;2.00;;;1.90;;
37931;SDS011;23758;42.640;23.302;2024-02-23T13:16:28;2.00;;;1.90;;
37931;SDS011;23758;42.640;23.302;2024-02-23T13:18:54;2.00;;;1.90;;
37931;SDS011;23758;42.640;23.302;2024-02-23T13:21:20;1.98;;;1.88;;
37931;SDS011;23758;42.640;23.302;2024-02-23T13:23:45;1.92;;;1.83;;
37931;SDS011;23758;42.640;23.302;2024-02-23T13:26:11;2.00;;;1.90;;
37931;SDS011;23758;42.640;23.302;2024-02-23T13:28:39;1.85;;;1.75;;
37931;SDS011;23758;42.640;23.302;2024-02-23T13:31:06;2.00;;;1.90;;
37931;SDS011;23758;42.640;23.302;2024-02-23T13:33:32;1.98;;;1.88;;
37931;SDS011;23758;42.640;23.302;2024-02-23T13:35:57;2.30;;;2.20;;
37931;SDS011;23758;42.640;23.302;2024-02-23T13:38:23;1.90;;;1.80;;
37931;SDS011;23758;42.640;23.302;2024-02-23T13:40:49;2.00;;;1.90;;
37931;SDS011;23758;42.640;23.302;2024-02-23T13:43:15;2.10;;;2.00;;
37931;SDS011;23758;42.640;23.302;2024-02-23T13:45:50;2.00;;;1.90;;
37931;SDS011;23758;42.640;23.302;2024-02-23T13:48:17;2.17;;;2.08;;
37931;SDS011;23758;42.640;23.302;2024-02-23T13:50:44;2.00;;;1.90;;
37931;SDS011;23758;42.640;23.302;2024-02-23T13:53:10;1.90;;;1.80;;
37931;SDS011;23758;42.640;23.302;2024-02-23T13:55:37;1.92;;;1.83;;
37931;SDS011;23758;42.640;23.302;2024-02-23T13:58:03;1.90;;;1.80;;
37931;SDS011;23758;42.640;23.302;2024-02-23T14:00:28;1.90;;;1.80;;
37931;SDS011;23758;42.640;23.302;2024-02-23T14:02:54;2.20;;;2.10;;
37931;SDS011;23758;42.640;23.302;2024-02-23T14:05:19;2.00;;;1.90;;
37931;SDS011;23758;42.640;23.302;2024-02-23T14:07:46;1.90;;;1.80;;
37931;SDS011;23758;42.640;23.302;2024-02-23T14:10:12;1.90;;;1.80;;
37931;SDS011;23758;42.640;23.302;2024-02-23T14:12:38;1.90;;;1.80;;
37931;SDS011;23758;42.640;23.302;2024-02-23T14:15:04;2.03;;;1.92;;
37931;SDS011;23758;42.640;23.302;2024-02-23T14:17:30;1.95;;;1.85;;
37931;SDS011;23758;42.640;23.302;2024-02-23T14:19:56;2.00;;;1.90;;
37931;SDS011;23758;42.640;23.302;2024-02-23T14:22:21;1.95;;;1.85;;
37931;SDS011;23758;42.640;23.302;2024-02-23T14:24:47;1.90;;;1.80;;
37931;SDS011;23758;42.640;23.302;2024-02-23T14:27:12;1.90;;;1.80;;